sensor_id;sensor_type;location;lat;lon;timestamp;pressure;altitude;pressure_sealevel;temperature;humidity
60355;BME280;46198;51.464;-0.066;2023-02-28T00:01:32;103202.31;;;3.88;100.00
60355;BME280;46198;51.464;-0.066;2023-02-28T00:04:00;103196.19;;;3.86;100.00
60355;BME280;46198;51.464;-0.066;2023-02-28T00:06:28;103196.94;;;3.88;100.00
60355;BME280;46198;51.464;-0.066;2023-02-28T00:08:57;103192.66;;;3.86;100.00
60355;BME280;46198;51.464;-0.066;2023-02-28T00:11:25;103200.84;;;3.84;100.00
60355;BME280;46198;51.464;-0.066;2023-02-28T00:13:53;103201.44;;;3.88;100.00
60355;BME280;46198;51.464;-0.066;2023-02-28T00:16:22;103191.31;;;3.80;100.00
60355;BME280;46198;51.464;-0.066;2023-02-28T00:18:51;103187.63;;;3.81;100.00
60355;BME280;46198;51.464;-0.066;2023-02-28T00:21:19;103188.38;;;3.83;100.00
60355;BME280;46198;51.464;-0.066;2023-02-28T00:23:47;103192.03;;;3.82;100.00
60355;BME280;46198;51.464;-0.066;2023-02-28T00:26:16;103195.56;;;3.83;100.00
60355;BME280;46198;51.464;-0.066;2023-02-28T00:28:47;103188.63;;;3.80;100.00
60355;BME280;46198;51.464;-0.066;2023-02-28T00:31:16;103189.72;;;3.77;100.00
60355;BME280;46198;51.464;-0.066;2023-02-28T00:33:45;103192.13;;;3.69;100.00
60355;BME280;46198;51.464;-0.066;2023-02-28T00:36:14;103200.91;;;3.71;100.00
60355;BME280;46198;51.464;-0.066;2023-02-28T00:38:42;103191.03;;;3.72;100.00
60355;BME280;46198;51.464;-0.066;2023-02-28T00:41:10;103202.22;;;3.66;100.00
60355;BME280;46198;51.464;-0.066;2023-02-28T00:43:39;103202.22;;;3.66;100.00
60355;BME280;46198;51.464;-0.066;2023-02-28T00:46:07;103206.13;;;3.62;100.00
60355;BME280;46198;51.464;-0.066;2023-02-28T00:48:36;103199.03;;;3.61;100.00
60355;BME280;46198;51.464;-0.066;2023-02-28T00:51:05;103207.56;;;3.54;100.00
60355;BME280;46198;51.464;-0.066;2023-02-28T00:53:33;103213.69;;;3.57;100.00
60355;BME280;46198;51.464;-0.066;2023-02-28T00:56:01;103205.09;;;3.51;100.00
60355;BME280;46198;51.464;-0.066;2023-02-28T00:58:30;103204.34;;;3.49;100.00
60355;BME280;46198;51.464;-0.066;2023-02-28T01:00:58;103200.19;;;3.45;100.00
60355;BME280;46198;51.464;-0.066;2023-02-28T01:03:26;103209.09;;;3.46;100.00
60355;BME280;46198;51.464;-0.066;2023-02-28T01:05:54;103204.72;;;3.45;100.00
60355;BME280;46198;51.464;-0.066;2023-02-28T01:08:24;103209.34;;;3.43;100.00
60355;BME280;46198;51.464;-0.066;2023-02-28T01:10:52;103219.09;;;3.44;100.00
60355;BME280;46198;51.464;-0.066;2023-02-28T01:13:21;103209.69;;;3.38;100.00
60355;BME280;46198;51.464;-0.066;2023-02-28T01:15:51;103207.13;;;3.37;100.00
60355;BME280;46198;51.464;-0.066;2023-02-28T01:18:20;103208.22;;;3.34;100.00
60355;BME280;46198;51.464;-0.066;2023-02-28T01:20:48;103217.97;;;3.35;100.00
60355;BME280;46198;51.464;-0.066;2023-02-28T01:23:18;103215.50;;;3.32;100.00
60355;BME280;46198;51.464;-0.066;2023-02-28T01:25:48;103206.94;;;3.27;100.00
60355;BME280;46198;51.464;-0.066;2023-02-28T01:28:16;103221.13;;;3.29;100.00
60355;BME280;46198;51.464;-0.066;2023-02-28T01:30:47;103222.28;;;3.25;100.00
60355;BME280;46198;51.464;-0.066;2023-02-28T01:33:16;103219.84;;;3.22;100.00
60355;BME280;46198;51.464;-0.066;2023-02-28T01:35:44;103214.47;;;3.22;100.00
60355;BME280;46198;51.464;-0.066;2023-02-28T01:38:12;103222.63;;;3.20;100.00
60355;BME280;46198;51.464;-0.066;2023-02-28T01:40:50;103210.41;;;3.16;100.00
60355;BME280;46198;51.464;-0.066;2023-02-28T01:43:24;103214.06;;;3.15;100.00
60355;BME280;46198;51.464;-0.066;2023-02-28T01:45:55;103220.53;;;3.13;100.00
60355;BME280;46198;51.464;-0.066;2023-02-28T01:48:26;103217.94;;;3.11;100.00
60355;BME280;46198;51.464;-0.066;2023-02-28T01:50:57;103208.28;;;3.08;100.00
60355;BME280;46198;51.464;-0.066;2023-02-28T01:53:31;103210.13;;;3.08;100.00
60355;BME280;46198;51.464;-0.066;2023-02-28T01:56:04;103214.63;;;3.07;100.00
60355;BME280;46198;51.464;-0.066;2023-02-28T01:58:34;103222.91;;;3.04;100.00
60355;BME280;46198;51.464;-0.066;2023-02-28T02:01:03;103228.38;;;3.03;100.00
60355;BME280;46198;51.464;-0.066;2023-02-28T02:03:33;103221.63;;;2.97;100.00
60355;BME280;46198;51.464;-0.066;2023-02-28T02:06:03;103225.16;;;2.98;100.00
60355;BME280;46198;51.464;-0.066;2023-02-28T02:08:32;103225.50;;;2.93;100.00
60355;BME280;46198;51.464;-0.066;2023-02-28T02:11:01;103220.56;;;2.87;100.00
60355;BME280;46198;51.464;-0.066;2023-02-28T02:14:00;103215.34;;;2.85;100.00
60355;BME280;46198;51.464;-0.066;2023-02-28T02:16:45;103231.53;;;2.84;100.00
60355;BME280;46198;51.464;-0.066;2023-02-28T02:19:38;103223.47;;;2.84;100.00
60355;BME280;46198;51.464;-0.066;2023-02-28T02:22:29;103218.44;;;2.79;100.00
60355;BME280;46198;51.464;-0.066;2023-02-28T02:25:20;103214.81;;;2.80;100.00
60355;BME280;46198;51.464;-0.066;2023-02-28T02:28:29;103222.31;;;2.75;100.00
60355;BME280;46198;51.464;-0.066;2023-02-28T02:31:28;103226.94;;;2.73;100.00
60355;BME280;46198;51.464;-0.066;2023-02-28T02:34:24;103228.75;;;2.73;100.00
60355;BME280;46198;51.464;-0.066;2023-02-28T02:37:03;103228.22;;;2.67;100.00
60355;BME280;46198;51.464;-0.066;2023-02-28T02:39:38;103221.16;;;2.66;100.00
60355;BME280;46198;51.464;-0.066;2023-02-28T02:42:14;103221.16;;;2.66;100.00
60355;BME280;46198;51.464;-0.066;2023-02-28T02:44:47;103225.69;;;2.66;100.00
60355;BME280;46198;51.464;-0.066;2023-02-28T02:47:18;103213.66;;;2.59;100.00
60355;BME280;46198;51.464;-0.066;2023-02-28T02:49:51;103214.28;;;2.62;100.00
60355;BME280;46198;51.464;-0.066;2023-02-28T02:52:23;103209.16;;;2.59;100.00
60355;BME280;46198;51.464;-0.066;2023-02-28T02:54:55;103209.38;;;2.56;100.00
60355;BME280;46198;51.464;-0.066;2023-02-28T02:57:27;103209.59;;;2.53;100.00
60355;BME280;46198;51.464;-0.066;2023-02-28T02:59:59;103214.19;;;2.51;100.00
60355;BME280;46198;51.464;-0.066;2023-02-28T03:02:32;103214.19;;;2.51;100.00
60355;BME280;46198;51.464;-0.066;2023-02-28T03:05:05;103217.84;;;2.50;100.00
60355;BME280;46198;51.464;-0.066;2023-02-28T03:07:34;103215.72;;;2.42;100.00
60355;BME280;46198;51.464;-0.066;2023-02-28T03:10:03;103212.19;;;2.42;100.00
60355;BME280;46198;51.464;-0.066;2023-02-28T03:13:00;103213.88;;;2.43;100.00
60355;BME280;46198;51.464;-0.066;2023-02-28T03:15:36;103205.19;;;2.39;100.00
60355;BME280;46198;51.464;-0.066;2023-02-28T03:18:17;103198.31;;;2.35;100.00
60355;BME280;46198;51.464;-0.066;2023-02-28T03:20:57;103209.19;;;2.34;100.00
60355;BME280;46198;51.464;-0.066;2023-02-28T03:23:34;103213.47;;;2.36;100.00
60355;BME280;46198;51.464;-0.066;2023-02-28T03:26:12;103216.03;;;2.38;100.00
60355;BME280;46198;51.464;-0.066;2023-02-28T03:28:53;103218.91;;;2.35;100.00
60355;BME280;46198;51.464;-0.066;2023-02-28T03:31:30;103220.84;;;2.33;100.00
60355;BME280;46198;51.464;-0.066;2023-02-28T03:34:04;103220.00;;;2.32;100.00
60355;BME280;46198;51.464;-0.066;2023-02-28T03:36:38;103222.59;;;2.34;100.00
60355;BME280;46198;51.464;-0.066;2023-02-28T03:39:14;103221.06;;;2.30;100.00
60355;BME280;46198;51.464;-0.066;2023-02-28T03:41:46;103226.41;;;2.30;100.00
60355;BME280;46198;51.464;-0.066;2023-02-28T03:44:22;103223.88;;;2.28;100.00
60355;BME280;46198;51.464;-0.066;2023-02-28T03:46:55;103222.97;;;2.28;100.00
60355;BME280;46198;51.464;-0.066;2023-02-28T03:49:28;103229.09;;;2.30;100.00
60355;BME280;46198;51.464;-0.066;2023-02-28T03:52:01;103231.03;;;2.28;100.00
60355;BME280;46198;51.464;-0.066;2023-02-28T03:54:32;103232.09;;;2.25;100.00
60355;BME280;46198;51.464;-0.066;2023-02-28T03:57:04;103227.63;;;2.26;100.00
60355;BME280;46198;51.464;-0.066;2023-02-28T03:59:38;103217.97;;;2.23;100.00
60355;BME280;46198;51.464;-0.066;2023-02-28T04:02:07;103233.16;;;2.22;100.00
60355;BME280;46198;51.464;-0.066;2023-02-28T04:04:36;103235.97;;;2.21;100.00
60355;BME280;46198;51.464;-0.066;2023-02-28T04:07:06;103237.78;;;2.20;100.00
60355;BME280;46198;51.464;-0.066;2023-02-28T04:10:04;103237.13;;;2.17;100.00
60355;BME280;46198;51.464;-0.066;2023-02-28T04:12:32;103229.00;;;2.18;100.00
60355;BME280;46198;51.464;-0.066;2023-02-28T04:15:02;103229.00;;;2.18;100.00
60355;BME280;46198;51.464;-0.066;2023-02-28T04:17:30;103222.88;;;2.16;100.00
60355;BME280;46198;51.464;-0.066;2023-02-28T04:19:57;103230.91;;;2.16;100.00
60355;BME280;46198;51.464;-0.066;2023-02-28T04:22:26;103229.22;;;2.15;100.00
60355;BME280;46198;51.464;-0.066;2023-02-28T04:24:53;103234.34;;;2.18;100.00
60355;BME280;46198;51.464;-0.066;2023-02-28T04:27:22;103234.56;;;2.15;100.00
60355;BME280;46198;51.464;-0.066;2023-02-28T04:29:49;103239.06;;;2.15;100.00
60355;BME280;46198;51.464;-0.066;2023-02-28T04:32:19;103236.50;;;2.13;100.00
60355;BME280;46198;51.464;-0.066;2023-02-28T04:34:47;103232.19;;;2.11;100.00
60355;BME280;46198;51.464;-0.066;2023-02-28T04:37:15;103245.59;;;2.11;100.00
60355;BME280;46198;51.464;-0.066;2023-02-28T04:39:43;103253.00;;;2.07;100.00
60355;BME280;46198;51.464;-0.066;2023-02-28T04:42:12;103245.91;;;2.06;100.00
60355;BME280;46198;51.464;-0.066;2023-02-28T04:44:40;103256.63;;;2.06;100.00
60355;BME280;46198;51.464;-0.066;2023-02-28T04:47:08;103258.56;;;2.04;100.00
60355;BME280;46198;51.464;-0.066;2023-02-28T04:49:37;103253.31;;;2.03;100.00
60355;BME280;46198;51.464;-0.066;2023-02-28T04:52:05;103261.47;;;2.01;100.00
60355;BME280;46198;51.464;-0.066;2023-02-28T04:54:34;103255.03;;;2.04;100.00
60355;BME280;46198;51.464;-0.066;2023-02-28T04:57:02;103253.50;;;1.99;100.00
60355;BME280;46198;51.464;-0.066;2023-02-28T04:59:31;103251.47;;;2.03;100.00
60355;BME280;46198;51.464;-0.066;2023-02-28T05:01:59;103255.03;;;2.04;100.00
60355;BME280;46198;51.464;-0.066;2023-02-28T05:04:30;103257.91;;;2.00;100.00
60355;BME280;46198;51.464;-0.066;2023-02-28T05:07:02;103257.03;;;2.00;100.00
60355;BME280;46198;51.464;-0.066;2023-02-28T05:09:30;103258.78;;;2.01;100.00
60355;BME280;46198;51.464;-0.066;2023-02-28T05:11:59;103257.81;;;2.02;100.00
60355;BME280;46198;51.464;-0.066;2023-02-28T05:14:27;103254.38;;;2.00;100.00
60355;BME280;46198;51.464;-0.066;2023-02-28T05:16:55;103257.03;;;2.00;100.00
60355;BME280;46198;51.464;-0.066;2023-02-28T05:19:23;103258.97;;;1.98;100.00
60355;BME280;46198;51.464;-0.066;2023-02-28T05:21:53;103260.03;;;1.95;100.00
60355;BME280;46198;51.464;-0.066;2023-02-28T05:24:23;103259.09;;;1.96;100.00
60355;BME280;46198;51.464;-0.066;2023-02-28T05:26:52;103254.66;;;1.95;100.00
60355;BME280;46198;51.464;-0.066;2023-02-28T05:29:20;103255.63;;;1.94;100.00
60355;BME280;46198;51.464;-0.066;2023-02-28T05:31:48;103259.16;;;1.95;100.00
60355;BME280;46198;51.464;-0.066;2023-02-28T05:34:17;103265.38;;;1.95;100.00
60355;BME280;46198;51.464;-0.066;2023-02-28T05:36:45;103258.44;;;1.93;100.00
60355;BME280;46198;51.464;-0.066;2023-02-28T05:39:13;103267.41;;;1.92;100.00
60355;BME280;46198;51.464;-0.066;2023-02-28T05:41:43;103269.34;;;1.90;100.00
60355;BME280;46198;51.464;-0.066;2023-02-28T05:44:11;103272.03;;;1.90;100.00
60355;BME280;46198;51.464;-0.066;2023-02-28T05:46:39;103281.78;;;1.91;100.00
60355;BME280;46198;51.464;-0.066;2023-02-28T05:49:07;103277.19;;;1.93;100.00
60355;BME280;46198;51.464;-0.066;2023-02-28T05:51:35;103272.78;;;1.92;100.00
60355;BME280;46198;51.464;-0.066;2023-02-28T05:54:06;103287.91;;;1.93;100.00
60355;BME280;46198;51.464;-0.066;2023-02-28T05:56:34;103286.19;;;1.92;100.00
60355;BME280;46198;51.464;-0.066;2023-02-28T05:59:05;103288.78;;;1.93;100.00
60355;BME280;46198;51.464;-0.066;2023-02-28T06:01:35;103288.66;;;1.95;100.00
60355;BME280;46198;51.464;-0.066;2023-02-28T06:04:05;103302.91;;;1.95;100.00
60355;BME280;46198;51.464;-0.066;2023-02-28T06:06:33;103301.09;;;1.96;100.00
60355;BME280;46198;51.464;-0.066;2023-02-28T06:09:04;103301.66;;;2.01;100.00
60355;BME280;46198;51.464;-0.066;2023-02-28T06:11:32;103296.94;;;2.05;100.00
60355;BME280;46198;51.464;-0.066;2023-02-28T06:14:01;103291.38;;;2.08;100.00
60355;BME280;46198;51.464;-0.066;2023-02-28T06:16:33;103296.63;;;2.09;100.00
60355;BME280;46198;51.464;-0.066;2023-02-28T06:19:03;103297.28;;;2.13;100.00
60355;BME280;46198;51.464;-0.066;2023-02-28T06:21:31;103303.28;;;2.16;100.00
60355;BME280;46198;51.464;-0.066;2023-02-28T06:23:59;103295.03;;;2.19;100.00
60355;BME280;46198;51.464;-0.066;2023-02-28T06:26:27;103296.56;;;2.24;100.00
60355;BME280;46198;51.464;-0.066;2023-02-28T06:28:55;103295.56;;;2.25;100.00
60355;BME280;46198;51.464;-0.066;2023-02-28T06:31:23;103295.47;;;2.26;100.00
60355;BME280;46198;51.464;-0.066;2023-02-28T06:33:54;103297.31;;;2.26;100.00
60355;BME280;46198;51.464;-0.066;2023-02-28T06:36:23;103291.75;;;2.29;100.00
60355;BME280;46198;51.464;-0.066;2023-02-28T06:38:51;103294.41;;;2.29;100.00
60355;BME280;46198;51.464;-0.066;2023-02-28T06:41:22;103287.66;;;2.36;100.00
60355;BME280;46198;51.464;-0.066;2023-02-28T06:43:52;103290.25;;;2.37;100.00
60355;BME280;46198;51.464;-0.066;2023-02-28T06:46:20;103286.50;;;2.40;100.00
60355;BME280;46198;51.464;-0.066;2023-02-28T06:48:48;103291.72;;;2.41;100.00
60355;BME280;46198;51.464;-0.066;2023-02-28T06:51:20;103287.97;;;2.44;100.00
60355;BME280;46198;51.464;-0.066;2023-02-28T06:53:49;103282.63;;;2.44;100.00
60355;BME280;46198;51.464;-0.066;2023-02-28T06:56:18;103288.88;;;2.44;100.00
60355;BME280;46198;51.464;-0.066;2023-02-28T06:58:47;103287.66;;;2.49;100.00
60355;BME280;46198;51.464;-0.066;2023-02-28T07:01:16;103280.91;;;2.43;100.00
60355;BME280;46198;51.464;-0.066;2023-02-28T07:03:44;103280.47;;;2.49;100.00
60355;BME280;46198;51.464;-0.066;2023-02-28T07:06:12;103278.56;;;2.51;100.00
60355;BME280;46198;51.464;-0.066;2023-02-28T07:08:41;103289.06;;;2.54;100.00
60355;BME280;46198;51.464;-0.066;2023-02-28T07:11:09;103296.16;;;2.55;100.00
60355;BME280;46198;51.464;-0.066;2023-02-28T07:13:37;103295.06;;;2.58;100.00
60355;BME280;46198;51.464;-0.066;2023-02-28T07:16:09;103290.59;;;2.58;100.00
60355;BME280;46198;51.464;-0.066;2023-02-28T07:18:37;103290.47;;;2.60;100.00
60355;BME280;46198;51.464;-0.066;2023-02-28T07:21:08;103300.88;;;2.64;100.00
60355;BME280;46198;51.464;-0.066;2023-02-28T07:23:37;103294.66;;;2.64;100.00
60355;BME280;46198;51.464;-0.066;2023-02-28T07:26:11;103302.38;;;2.69;100.00
60355;BME280;46198;51.464;-0.066;2023-02-28T07:28:41;103298.59;;;2.71;100.00
60355;BME280;46198;51.464;-0.066;2023-02-28T07:31:10;103300.34;;;2.72;100.00
60355;BME280;46198;51.464;-0.066;2023-02-28T07:33:38;103293.47;;;2.81;100.00
60355;BME280;46198;51.464;-0.066;2023-02-28T07:36:09;103297.63;;;2.85;100.00
60355;BME280;46198;51.464;-0.066;2023-02-28T07:38:41;103301.84;;;2.89;100.00
60355;BME280;46198;51.464;-0.066;2023-02-28T07:41:15;103301.63;;;2.92;100.00
60355;BME280;46198;51.464;-0.066;2023-02-28T07:43:43;103301.28;;;2.97;100.00
60355;BME280;46198;51.464;-0.066;2023-02-28T07:46:13;103302.78;;;3.01;100.00
60355;BME280;46198;51.464;-0.066;2023-02-28T07:48:43;103303.75;;;3.00;100.00
60355;BME280;46198;51.464;-0.066;2023-02-28T07:51:11;103306.97;;;3.05;100.00
60355;BME280;46198;51.464;-0.066;2023-02-28T07:53:39;103311.81;;;3.13;100.00
60355;BME280;46198;51.464;-0.066;2023-02-28T07:56:07;103303.53;;;3.16;100.00
60355;BME280;46198;51.464;-0.066;2023-02-28T07:58:38;103312.09;;;3.21;100.00
60355;BME280;46198;51.464;-0.066;2023-02-28T08:01:07;103308.00;;;3.28;100.00
60355;BME280;46198;51.464;-0.066;2023-02-28T08:03:36;103312.19;;;3.32;100.00
60355;BME280;46198;51.464;-0.066;2023-02-28T08:06:06;103309.28;;;3.35;100.00
60355;BME280;46198;51.464;-0.066;2023-02-28T08:08:34;103313.22;;;3.42;100.00
60355;BME280;46198;51.464;-0.066;2023-02-28T08:11:03;103311.28;;;3.44;100.00
60355;BME280;46198;51.464;-0.066;2023-02-28T08:13:31;103299.22;;;3.50;100.00
60355;BME280;46198;51.464;-0.066;2023-02-28T08:16:01;103314.78;;;3.58;100.00
60355;BME280;46198;51.464;-0.066;2023-02-28T08:18:30;103301.34;;;3.58;100.00
60355;BME280;46198;51.464;-0.066;2023-02-28T08:20:58;103305.53;;;3.62;100.00
60355;BME280;46198;51.464;-0.066;2023-02-28T08:23:26;103303.25;;;3.68;100.00
60355;BME280;46198;51.464;-0.066;2023-02-28T08:25:54;103306.13;;;3.78;100.00
60355;BME280;46198;51.464;-0.066;2023-02-28T08:28:23;103306.63;;;3.83;100.00
60355;BME280;46198;51.464;-0.066;2023-02-28T08:30:53;103312.91;;;3.95;100.00
60355;BME280;46198;51.464;-0.066;2023-02-28T08:33:23;103300.72;;;4.02;100.00
60355;BME280;46198;51.464;-0.066;2023-02-28T08:35:52;103309.91;;;4.11;100.00
60355;BME280;46198;51.464;-0.066;2023-02-28T08:38:21;103301.97;;;4.09;100.00
60355;BME280;46198;51.464;-0.066;2023-02-28T08:40:53;103297.59;;;4.19;100.00
60355;BME280;46198;51.464;-0.066;2023-02-28T08:43:24;103305.47;;;4.34;100.00
60355;BME280;46198;51.464;-0.066;2023-02-28T08:45:52;103305.59;;;4.32;100.00
60355;BME280;46198;51.464;-0.066;2023-02-28T08:48:22;103308.78;;;4.37;100.00
60355;BME280;46198;51.464;-0.066;2023-02-28T08:50:57;103306.13;;;4.49;100.00
60355;BME280;46198;51.464;-0.066;2023-02-28T08:53:33;103308.31;;;4.55;100.00
60355;BME280;46198;51.464;-0.066;2023-02-28T08:56:03;103310.28;;;4.64;100.00
60355;BME280;46198;51.464;-0.066;2023-02-28T08:58:32;103297.47;;;4.68;100.00
60355;BME280;46198;51.464;-0.066;2023-02-28T09:01:07;103294.19;;;4.75;100.00
60355;BME280;46198;51.464;-0.066;2023-02-28T09:03:37;103291.00;;;4.81;100.00
60355;BME280;46198;51.464;-0.066;2023-02-28T09:06:06;103296.72;;;4.88;100.00
60355;BME280;46198;51.464;-0.066;2023-02-28T09:08:35;103292.69;;;4.94;100.00
60355;BME280;46198;51.464;-0.066;2023-02-28T09:11:03;103285.84;;;5.12;100.00
60355;BME280;46198;51.464;-0.066;2023-02-28T09:13:32;103287.91;;;5.20;100.00
60355;BME280;46198;51.464;-0.066;2023-02-28T09:16:04;103288.41;;;5.25;100.00
60355;BME280;46198;51.464;-0.066;2023-02-28T09:18:33;103286.06;;;5.31;100.00
60355;BME280;46198;51.464;-0.066;2023-02-28T09:21:04;103290.97;;;5.38;100.00
60355;BME280;46198;51.464;-0.066;2023-02-28T09:23:33;103283.44;;;5.52;100.00
60355;BME280;46198;51.464;-0.066;2023-02-28T09:26:01;103285.84;;;5.67;100.00
60355;BME280;46198;51.464;-0.066;2023-02-28T09:28:29;103279.56;;;5.77;100.00
60355;BME280;46198;51.464;-0.066;2023-02-28T09:31:20;103279.75;;;5.97;100.00
60355;BME280;46198;51.464;-0.066;2023-02-28T09:33:49;103274.84;;;6.02;100.00
60355;BME280;46198;51.464;-0.066;2023-02-28T09:36:19;103276.31;;;6.06;100.00
60355;BME280;46198;51.464;-0.066;2023-02-28T09:38:50;103278.28;;;6.04;100.00
60355;BME280;46198;51.464;-0.066;2023-02-28T09:41:21;103279.38;;;6.02;100.00
60355;BME280;46198;51.464;-0.066;2023-02-28T09:43:52;103271.22;;;6.13;100.00
60355;BME280;46198;51.464;-0.066;2023-02-28T09:46:32;103274.53;;;6.16;100.00
60355;BME280;46198;51.464;-0.066;2023-02-28T09:49:04;103271.91;;;6.26;100.00
60355;BME280;46198;51.464;-0.066;2023-02-28T09:51:43;103260.72;;;6.31;100.00
60355;BME280;46198;51.464;-0.066;2023-02-28T09:54:15;103267.69;;;6.33;100.00
60355;BME280;46198;51.464;-0.066;2023-02-28T09:56:48;103270.00;;;6.38;100.00
60355;BME280;46198;51.464;-0.066;2023-02-28T09:59:36;103272.50;;;6.30;100.00
60355;BME280;46198;51.464;-0.066;2023-02-28T10:02:19;103277.47;;;6.13;100.00
60355;BME280;46198;51.464;-0.066;2023-02-28T10:04:53;103271.31;;;6.22;100.00
60355;BME280;46198;51.464;-0.066;2023-02-28T10:07:35;103272.03;;;6.25;100.00
60355;BME280;46198;51.464;-0.066;2023-02-28T10:10:15;103268.81;;;6.31;100.00
60355;BME280;46198;51.464;-0.066;2023-02-28T10:12:47;103274.47;;;6.28;100.00
60355;BME280;46198;51.464;-0.066;2023-02-28T10:15:15;103272.63;;;6.28;100.00
60355;BME280;46198;51.464;-0.066;2023-02-28T10:17:47;103268.81;;;6.31;100.00
60355;BME280;46198;51.464;-0.066;2023-02-28T10:20:27;103261.19;;;6.36;100.00
60355;BME280;46198;51.464;-0.066;2023-02-28T10:23:03;103262.31;;;6.33;100.00
60355;BME280;46198;51.464;-0.066;2023-02-28T10:25:35;103257.44;;;6.27;100.00
60355;BME280;46198;51.464;-0.066;2023-02-28T10:28:11;103248.16;;;6.41;100.00
60355;BME280;46198;51.464;-0.066;2023-02-28T10:30:41;103252.66;;;6.40;100.00
60355;BME280;46198;51.464;-0.066;2023-02-28T10:33:18;103258.69;;;6.44;100.00
60355;BME280;46198;51.464;-0.066;2023-02-28T10:35:47;103253.94;;;6.36;100.00
60355;BME280;46198;51.464;-0.066;2023-02-28T10:38:20;103258.03;;;6.31;100.00
60355;BME280;46198;51.464;-0.066;2023-02-28T10:40:48;103258.56;;;6.25;100.00
60355;BME280;46198;51.464;-0.066;2023-02-28T10:43:21;103255.97;;;6.23;100.00
60355;BME280;46198;51.464;-0.066;2023-02-28T10:45:59;103258.28;;;6.28;100.00
60355;BME280;46198;51.464;-0.066;2023-02-28T10:48:32;103247.97;;;6.33;100.00
60355;BME280;46198;51.464;-0.066;2023-02-28T10:51:02;103247.34;;;6.29;100.00
60355;BME280;46198;51.464;-0.066;2023-02-28T10:53:37;103244.53;;;6.31;100.00
60355;BME280;46198;51.464;-0.066;2023-02-28T10:56:26;103246.97;;;6.34;100.00
60355;BME280;46198;51.464;-0.066;2023-02-28T10:58:56;103246.38;;;6.30;100.00
60355;BME280;46198;51.464;-0.066;2023-02-28T11:01:35;103238.13;;;6.32;100.00
60355;BME280;46198;51.464;-0.066;2023-02-28T11:04:16;103236.16;;;6.34;100.00
60355;BME280;46198;51.464;-0.066;2023-02-28T11:06:46;103233.19;;;6.37;100.00
60355;BME280;46198;51.464;-0.066;2023-02-28T11:09:22;103234.66;;;6.41;100.00
60355;BME280;46198;51.464;-0.066;2023-02-28T11:11:52;103224.56;;;6.43;100.00
60355;BME280;46198;51.464;-0.066;2023-02-28T11:14:22;103223.16;;;6.49;100.00
60355;BME280;46198;51.464;-0.066;2023-02-28T11:16:53;103225.16;;;6.47;100.00
60355;BME280;46198;51.464;-0.066;2023-02-28T11:19:25;103222.88;;;6.42;100.00
60355;BME280;46198;51.464;-0.066;2023-02-28T11:21:56;103218.91;;;6.46;100.00
60355;BME280;46198;51.464;-0.066;2023-02-28T11:24:31;103220.34;;;6.50;100.00
60355;BME280;46198;51.464;-0.066;2023-02-28T11:27:01;103211.53;;;6.48;100.00
60355;BME280;46198;51.464;-0.066;2023-02-28T11:29:31;103187.38;;;6.47;100.00
60355;BME280;46198;51.464;-0.066;2023-02-28T11:32:12;103178.69;;;6.43;100.00
60355;BME280;46198;51.464;-0.066;2023-02-28T11:34:42;103154.66;;;6.40;100.00
60355;BME280;46198;51.464;-0.066;2023-02-28T11:37:13;103172.22;;;6.55;100.00
60355;BME280;46198;51.464;-0.066;2023-02-28T11:39:44;103181.03;;;6.57;100.00
60355;BME280;46198;51.464;-0.066;2023-02-28T11:42:28;103198.47;;;6.53;100.00
60355;BME280;46198;51.464;-0.066;2023-02-28T11:45:11;103200.22;;;6.64;100.00
60355;BME280;46198;51.464;-0.066;2023-02-28T11:47:47;103214.41;;;6.56;100.00
60355;BME280;46198;51.464;-0.066;2023-02-28T11:50:22;103205.19;;;6.59;100.00
60355;BME280;46198;51.464;-0.066;2023-02-28T11:52:56;103203.78;;;6.64;100.00
60355;BME280;46198;51.464;-0.066;2023-02-28T11:55:33;103203.22;;;6.61;100.00
60355;BME280;46198;51.464;-0.066;2023-02-28T11:58:27;103196.56;;;6.65;100.00
60355;BME280;46198;51.464;-0.066;2023-02-28T12:01:08;103193.53;;;6.58;100.00
60355;BME280;46198;51.464;-0.066;2023-02-28T12:03:44;103189.13;;;6.57;100.00
60355;BME280;46198;51.464;-0.066;2023-02-28T12:06:21;103191.16;;;6.65;100.00
60355;BME280;46198;51.464;-0.066;2023-02-28T12:09:01;103184.19;;;6.62;100.00
60355;BME280;46198;51.464;-0.066;2023-02-28T12:11:40;103181.66;;;6.71;100.00
60355;BME280;46198;51.464;-0.066;2023-02-28T12:14:44;103160.31;;;6.68;100.00
60355;BME280;46198;51.464;-0.066;2023-02-28T12:17:22;103157.25;;;6.82;100.00
60355;BME280;46198;51.464;-0.066;2023-02-28T12:20:00;103151.84;;;6.92;100.00
60355;BME280;46198;51.464;-0.066;2023-02-28T12:22:32;103143.47;;;6.95;100.00
60355;BME280;46198;51.464;-0.066;2023-02-28T12:25:22;103128.13;;;7.05;100.00
60355;BME280;46198;51.464;-0.066;2023-02-28T12:27:53;103119.47;;;7.11;100.00
60355;BME280;46198;51.464;-0.066;2023-02-28T12:30:24;103122.75;;;7.15;100.00
60355;BME280;46198;51.464;-0.066;2023-02-28T12:32:56;103121.75;;;7.16;100.00
60355;BME280;46198;51.464;-0.066;2023-02-28T12:35:31;103126.44;;;7.14;100.00
60355;BME280;46198;51.464;-0.066;2023-02-28T12:38:04;103123.31;;;7.18;100.00
60355;BME280;46198;51.464;-0.066;2023-02-28T12:40:43;103133.00;;;7.21;100.00
60355;BME280;46198;51.464;-0.066;2023-02-28T12:43:16;103125.59;;;7.23;100.00
60355;BME280;46198;51.464;-0.066;2023-02-28T12:45:48;103127.31;;;7.24;100.00
60355;BME280;46198;51.464;-0.066;2023-02-28T12:48:21;103118.78;;;7.28;100.00
60355;BME280;46198;51.464;-0.066;2023-02-28T12:50:52;103117.63;;;7.21;100.00
60355;BME280;46198;51.464;-0.066;2023-02-28T12:53:24;103113.50;;;7.27;100.00
60355;BME280;46198;51.464;-0.066;2023-02-28T12:56:02;103107.66;;;7.22;100.00
60355;BME280;46198;51.464;-0.066;2023-02-28T12:58:37;103103.28;;;7.21;100.00
60355;BME280;46198;51.464;-0.066;2023-02-28T13:04:40;103090.06;;;7.18;100.00
60355;BME280;46198;51.464;-0.066;2023-02-28T13:07:29;103087.06;;;7.21;100.00
60355;BME280;46198;51.464;-0.066;2023-02-28T13:10:05;103080.66;;;7.22;100.00